createdAt,value
2023-05-05T00:00:01.795Z,158106.63
2023-05-05T00:02:29.282Z,158123.94
2023-05-05T00:04:57.124Z,158121.25
2023-05-05T00:07:24.589Z,158119.94
2023-05-05T00:09:52.339Z,158113.28
2023-05-05T00:12:19.781Z,158114.59
2023-05-05T00:14:47.435Z,158102.66
2023-05-05T00:17:14.890Z,158115.97
2023-05-05T00:19:43.024Z,158104.00
2023-05-05T00:22:10.330Z,158106.63
2023-05-05T00:24:37.836Z,158097.34
2023-05-05T00:27:05.109Z,158098.66
2023-05-05T00:29:32.968Z,158097.34
2023-05-05T00:32:00.276Z,158069.41
2023-05-05T00:34:28.028Z,158073.41
2023-05-05T00:36:55.299Z,158086.69
2023-05-05T00:39:23.132Z,158068.09
2023-05-05T00:41:50.826Z,158084.03
2023-05-05T00:44:18.480Z,158065.41
2023-05-05T00:46:45.847Z,158060.13
2023-05-05T00:49:13.840Z,158056.09
2023-05-05T00:51:41.273Z,158054.78
2023-05-05T00:54:10.843Z,158045.50
2023-05-05T00:56:38.660Z,158026.84
2023-05-05T00:59:06.469Z,158021.53
2023-05-05T01:01:34.000Z,158021.53
2023-05-05T01:04:01.682Z,158002.94
2023-05-05T01:07:10.880Z,157993.59
2023-05-05T01:10:18.186Z,157984.31
2023-05-05T01:13:10.764Z,157975.00
2023-05-05T01:15:42.544Z,157961.72
2023-05-05T01:18:12.190Z,157941.75
2023-05-05T01:21:07.962Z,157916.47
2023-05-05T01:23:44.511Z,157923.13
2023-05-05T01:26:49.821Z,157911.16
2023-05-05T01:29:38.927Z,157897.91
2023-05-05T01:32:15.167Z,157873.94
2023-05-05T01:34:47.635Z,157860.66
2023-05-05T01:37:52.467Z,157868.63
2023-05-05T01:40:38.428Z,157873.94
2023-05-05T01:43:07.818Z,157863.34
2023-05-05T01:45:38.565Z,157872.63
2023-05-05T01:48:07.361Z,157876.63
2023-05-05T01:50:34.910Z,157892.56
2023-05-05T01:53:04.019Z,157887.25
2023-05-05T01:55:31.383Z,157895.22
2023-05-05T01:57:59.348Z,157899.22
2023-05-05T02:00:27.639Z,157903.19
2023-05-05T02:03:00.144Z,157907.19
2023-05-05T02:05:28.159Z,157907.19
2023-05-05T02:07:58.588Z,157916.47
2023-05-05T02:10:26.477Z,157920.50
2023-05-05T02:12:54.445Z,157925.81
2023-05-05T02:15:22.836Z,157931.09
2023-05-05T02:17:54.948Z,157927.16
2023-05-05T02:20:22.907Z,157936.44
2023-05-05T02:22:51.086Z,157948.41
2023-05-05T02:25:18.629Z,157945.72
2023-05-05T02:27:48.507Z,157967.00
2023-05-05T02:30:18.511Z,157976.34
2023-05-05T02:32:54.462Z,157977.66
2023-05-05T02:35:31.700Z,157980.28
2023-05-05T02:38:05.633Z,157985.63
2023-05-05T02:40:40.901Z,157992.28
2023-05-05T02:43:11.798Z,158001.56
2023-05-05T02:45:39.369Z,158009.59
2023-05-05T02:48:07.396Z,158001.56
2023-05-05T02:50:39.081Z,158005.59
2023-05-05T02:53:25.808Z,158008.22
2023-05-05T02:55:56.425Z,158001.56
2023-05-05T02:58:31.898Z,158012.22
2023-05-05T03:01:32.159Z,158010.91
2023-05-05T03:04:25.389Z,158009.59
2023-05-05T03:06:58.331Z,158009.59
2023-05-05T03:09:45.916Z,158014.88
2023-05-05T03:12:19.487Z,158006.91
2023-05-05T03:14:58.819Z,158009.59
2023-05-05T03:17:29.988Z,158006.91
2023-05-05T03:19:59.502Z,158006.91
2023-05-05T03:22:28.192Z,158013.56
2023-05-05T03:24:56.755Z,158012.22
2023-05-05T03:27:24.989Z,158010.91
2023-05-05T03:29:52.926Z,158013.56
2023-05-05T03:32:21.172Z,158014.88
2023-05-05T03:34:48.880Z,158017.56
2023-05-05T03:37:16.634Z,158022.84
2023-05-05T03:39:44.274Z,158012.22
2023-05-05T03:42:12.916Z,158012.22
2023-05-05T03:44:40.962Z,158006.91
2023-05-05T03:47:08.466Z,158009.59
2023-05-05T03:49:38.377Z,158029.50
2023-05-05T03:52:05.963Z,158048.13
2023-05-05T03:54:33.874Z,158046.81
2023-05-05T03:57:01.225Z,158042.81
2023-05-05T03:59:29.064Z,158089.38
2023-05-05T04:01:56.965Z,158092.00
2023-05-05T04:04:24.908Z,158134.56
2023-05-05T04:06:52.642Z,158142.59
2023-05-05T04:09:20.572Z,158166.56
2023-05-05T04:11:48.021Z,158203.81
2023-05-05T04:14:16.558Z,158226.41
2023-05-05T04:16:44.082Z,158254.34
2023-05-05T04:19:13.307Z,158303.59
2023-05-05T04:21:41.338Z,158346.19
2023-05-05T04:24:09.860Z,158390.16
2023-05-05T04:26:37.366Z,158462.03
2023-05-05T04:29:05.098Z,158502.00
2023-05-05T04:31:32.925Z,158572.56
2023-05-05T04:34:00.748Z,158595.19
2023-05-05T04:36:28.456Z,158604.50
2023-05-05T04:38:56.161Z,158679.13
2023-05-05T04:41:23.929Z,158731.06
2023-05-05T04:43:51.823Z,158744.38
2023-05-05T04:46:19.126Z,158784.44
2023-05-05T04:48:47.051Z,158837.72
2023-05-05T04:51:14.659Z,158859.03
2023-05-05T04:53:42.571Z,158884.38
2023-05-05T04:56:09.879Z,158940.38
2023-05-05T04:58:37.681Z,158979.00
2023-05-05T05:01:06.605Z,158991.03
2023-05-05T05:03:34.267Z,159075.03
2023-05-05T05:06:02.558Z,159099.03
2023-05-05T05:08:30.295Z,159180.41
2023-05-05T05:10:57.609Z,159273.84
2023-05-05T05:13:25.620Z,159365.94
2023-05-05T05:15:52.972Z,159456.69
2023-05-05T05:18:20.612Z,159518.13
2023-05-05T05:20:49.745Z,159564.88
2023-05-05T05:23:17.489Z,159622.31
2023-05-05T05:25:46.181Z,159687.78
2023-05-05T05:28:15.986Z,159719.88
2023-05-05T05:30:48.746Z,159717.16
2023-05-05T05:33:16.376Z,159686.47
2023-05-05T05:35:45.005Z,159690.44
2023-05-05T05:38:13.087Z,159758.59
2023-05-05T05:40:40.508Z,159824.03
2023-05-05T05:43:08.308Z,159921.63
2023-05-05T05:45:37.724Z,159960.41
2023-05-05T05:48:07.294Z,159999.16
2023-05-05T05:50:36.080Z,159993.78
2023-05-05T05:53:03.906Z,160033.91
2023-05-05T05:55:31.660Z,160049.94
2023-05-05T05:57:59.887Z,160028.53
2023-05-05T06:00:27.324Z,160056.69
2023-05-05T06:03:02.411Z,160001.84
2023-05-05T06:05:34.606Z,159979.09
2023-05-05T06:08:02.414Z,160052.69
2023-05-05T06:10:31.567Z,160051.38
2023-05-05T06:13:06.468Z,160049.94
2023-05-05T06:15:36.189Z,160059.38
2023-05-05T06:18:05.575Z,160080.78
2023-05-05T06:20:33.163Z,159989.81
2023-05-05T06:23:00.970Z,159944.31
2023-05-05T06:25:31.750Z,159939.00
2023-05-05T06:28:00.131Z,159918.97
2023-05-05T06:30:27.492Z,160001.84
2023-05-05T06:32:55.279Z,160004.50
2023-05-05T06:35:22.787Z,159959.03
2023-05-05T06:37:50.514Z,159953.72
2023-05-05T06:40:17.900Z,159967.09
2023-05-05T06:42:45.795Z,159989.81
2023-05-05T06:45:18.098Z,160049.94
2023-05-05T06:47:45.718Z,160143.63
2023-05-05T06:50:13.153Z,160143.63
2023-05-05T06:52:41.575Z,160173.03
2023-05-05T06:55:10.090Z,160144.97
2023-05-05T06:57:37.869Z,160119.53
2023-05-05T07:00:06.885Z,160115.53
2023-05-05T07:02:35.205Z,160108.84
2023-05-05T07:05:03.408Z,160182.38
2023-05-05T07:07:32.641Z,160242.59
2023-05-05T07:10:00.446Z,160302.78
2023-05-05T07:12:33.702Z,160337.56
2023-05-05T07:15:07.029Z,160403.16
2023-05-05T07:17:43.696Z,160491.53
2023-05-05T07:20:12.249Z,160499.53
2023-05-05T07:22:39.950Z,160454.06
2023-05-05T07:25:07.822Z,160467.41
2023-05-05T07:27:36.029Z,160446.00
2023-05-05T07:30:07.886Z,160403.16
2023-05-05T07:32:37.926Z,160401.84
2023-05-05T07:35:06.373Z,160399.19
2023-05-05T07:37:34.308Z,160372.34
2023-05-05T07:40:01.617Z,160377.72
2023-05-05T07:42:29.224Z,160387.13
2023-05-05T07:44:56.822Z,160425.97
2023-05-05T07:47:24.428Z,160460.75
2023-05-05T07:49:51.752Z,160482.16
2023-05-05T07:52:21.507Z,160496.88
2023-05-05T07:54:54.766Z,160482.16
2023-05-05T07:57:22.440Z,160478.13
2023-05-05T07:59:49.859Z,160487.50
2023-05-05T08:02:17.755Z,160496.88
2023-05-05T08:04:45.114Z,160520.97
2023-05-05T08:07:12.855Z,160490.19
2023-05-05T08:09:40.170Z,160468.78
2023-05-05T08:12:07.693Z,160498.22
2023-05-05T08:14:35.106Z,160506.25
2023-05-05T08:17:02.758Z,160518.31
2023-05-05T08:19:30.062Z,160499.53
2023-05-05T08:22:01.031Z,160463.41
2023-05-05T08:24:28.785Z,160480.78
2023-05-05T08:26:56.787Z,160450.03
2023-05-05T08:29:24.340Z,160397.84
2023-05-05T08:31:52.535Z,160396.47
2023-05-05T08:34:20.069Z,160407.19
2023-05-05T08:36:49.402Z,160419.25
2023-05-05T08:39:16.912Z,160446.00
2023-05-05T08:41:44.776Z,160416.56
2023-05-05T08:44:12.323Z,160415.22
2023-05-05T08:46:41.359Z,160424.59
2023-05-05T08:49:13.993Z,160507.56
2023-05-05T08:51:43.299Z,160549.06
2023-05-05T08:54:15.409Z,160553.13
2023-05-05T08:56:45.112Z,160561.13
2023-05-05T08:59:13.567Z,160559.81
2023-05-05T09:01:43.184Z,160537.00
2023-05-05T09:04:11.586Z,160542.38
2023-05-05T09:06:39.137Z,160574.53
2023-05-05T09:09:07.011Z,160541.06
2023-05-05T09:11:34.991Z,160482.16
2023-05-05T09:16:47.138Z,160416.56
2023-05-05T09:19:14.553Z,160432.66
2023-05-05T09:21:51.329Z,160444.66
2023-05-05T09:24:18.914Z,160424.59
2023-05-05T09:26:47.645Z,160409.88
2023-05-05T09:29:19.677Z,160432.66
2023-05-05T09:32:05.875Z,160399.19
2023-05-05T09:34:35.239Z,160387.13
2023-05-05T09:37:03.466Z,160436.63
2023-05-05T09:39:30.950Z,160424.59
2023-05-05T09:41:58.766Z,160412.56
2023-05-05T09:44:38.462Z,160478.13
2023-05-05T09:47:18.098Z,160483.50
2023-05-05T09:50:11.229Z,160545.03
2023-05-05T09:52:38.868Z,160638.78
2023-05-05T09:55:07.162Z,160578.50
2023-05-05T09:57:34.995Z,160586.53
2023-05-05T10:00:04.275Z,160575.88
2023-05-05T10:02:38.828Z,160511.59
2023-05-05T10:05:11.696Z,160480.78
2023-05-05T10:07:41.486Z,160472.75
2023-05-05T10:10:17.732Z,160428.63
2023-05-05T10:12:49.880Z,160484.81
2023-05-05T10:15:17.629Z,160428.63
2023-05-05T10:20:21.294Z,160502.22
2023-05-05T10:22:53.566Z,160526.31
2023-05-05T10:25:31.715Z,160527.66
2023-05-05T10:28:05.205Z,160582.56
2023-05-05T10:30:32.528Z,160610.69
2023-05-05T10:33:30.895Z,160632.09
2023-05-05T10:36:02.632Z,160495.50
2023-05-05T10:38:31.344Z,160566.50
2023-05-05T10:41:00.159Z,160590.59
2023-05-05T10:43:31.666Z,160551.72
2023-05-05T10:45:59.433Z,160550.41
2023-05-05T10:48:37.908Z,160554.44
2023-05-05T10:51:21.113Z,160539.72
2023-05-05T10:54:00.516Z,160495.50
2023-05-05T10:56:32.811Z,160507.56
2023-05-05T10:59:01.040Z,160550.41
2023-05-05T11:01:31.701Z,160559.81
2023-05-05T11:04:22.372Z,160613.34
2023-05-05T11:07:10.301Z,160586.53
2023-05-05T11:09:55.940Z,160475.47
2023-05-05T11:12:23.285Z,160377.72
2023-05-05T11:15:31.411Z,160408.53
2023-05-05T11:18:01.919Z,160558.44
2023-05-05T11:20:37.315Z,160670.91
2023-05-05T11:23:04.979Z,160644.09
2023-05-05T11:25:43.461Z,160602.66
2023-05-05T11:28:21.184Z,160541.06
2023-05-05T11:30:54.923Z,160500.88
2023-05-05T11:33:32.656Z,160494.19
2023-05-05T11:36:04.091Z,160507.56
2023-05-05T11:38:39.080Z,160526.31
2023-05-05T11:41:14.647Z,160468.78
2023-05-05T11:43:42.507Z,160412.56
2023-05-05T11:46:14.437Z,160392.50
2023-05-05T11:48:49.299Z,160395.16
2023-05-05T11:51:18.451Z,160431.28
2023-05-05T11:53:47.393Z,160464.75
2023-05-05T11:56:22.562Z,160391.16
2023-05-05T11:58:50.253Z,160408.53
2023-05-05T12:01:18.076Z,160365.66
2023-05-05T12:03:46.095Z,160352.28
2023-05-05T12:06:13.801Z,160440.69
2023-05-05T12:08:41.575Z,160379.06
2023-05-05T12:11:10.853Z,160371.03
2023-05-05T12:13:38.510Z,160435.31
2023-05-05T12:16:13.176Z,160448.69
2023-05-05T12:18:41.192Z,160495.50
2023-05-05T12:21:19.052Z,160516.94
2023-05-05T12:23:46.686Z,160503.59
2023-05-05T12:26:32.667Z,160494.19
2023-05-05T12:29:00.968Z,160475.47
2023-05-05T12:31:38.205Z,160409.88
2023-05-05T12:34:07.133Z,160431.28
2023-05-05T12:36:35.965Z,160432.66
2023-05-05T12:39:05.430Z,160486.16
2023-05-05T12:41:33.625Z,160471.44
2023-05-05T12:44:02.014Z,160459.38
2023-05-05T12:46:31.258Z,160448.69
2023-05-05T12:49:05.360Z,160455.41
2023-05-05T12:51:34.571Z,160443.34
2023-05-05T12:54:10.026Z,160411.25
2023-05-05T12:56:45.679Z,160420.59
2023-05-05T12:59:30.139Z,160365.66
2023-05-05T13:02:02.501Z,160344.25
2023-05-05T13:04:29.923Z,160363.00
2023-05-05T13:07:16.705Z,160360.31
2023-05-05T13:09:44.397Z,160322.84
2023-05-05T13:12:12.521Z,160280.03
2023-05-05T13:14:40.939Z,160234.59
2023-05-05T13:17:08.956Z,160266.66
2023-05-05T13:19:41.864Z,160238.56
2023-05-05T13:22:10.506Z,160202.47
2023-05-05T13:24:49.702Z,160230.53
2023-05-05T13:27:19.034Z,160207.81
2023-05-05T13:29:46.245Z,160194.44
2023-05-05T13:32:13.793Z,160166.34
2023-05-05T13:34:42.673Z,160132.91
2023-05-05T13:37:10.422Z,160148.94
2023-05-05T13:39:37.782Z,160165.03
2023-05-05T13:42:05.561Z,160181.06
2023-05-05T13:44:33.046Z,160157.00
2023-05-05T13:47:00.873Z,160144.97
2023-05-05T13:49:28.203Z,160186.41
2023-05-05T13:51:56.567Z,160124.88
2023-05-05T13:54:23.969Z,160064.69
2023-05-05T13:56:51.695Z,160043.25
2023-05-05T13:59:19.122Z,160023.25
2023-05-05T14:01:46.807Z,160094.16
2023-05-05T14:04:14.391Z,160143.63
2023-05-05T14:06:42.008Z,160116.88
2023-05-05T14:09:09.293Z,160132.91
2023-05-05T14:11:36.814Z,160126.22
2023-05-05T14:14:04.095Z,160181.06
2023-05-05T14:16:32.020Z,160230.53
2023-05-05T14:18:59.372Z,160286.75
2023-05-05T14:21:27.695Z,160277.38
2023-05-05T14:23:55.706Z,160250.63
2023-05-05T14:26:23.519Z,160231.88
2023-05-05T14:28:51.269Z,160261.28
2023-05-05T14:31:19.307Z,160239.91
2023-05-05T14:33:46.685Z,160229.22
2023-05-05T14:36:14.626Z,160187.75
2023-05-05T14:38:43.156Z,160135.56
2023-05-05T14:41:11.237Z,160104.81
2023-05-05T14:43:38.609Z,160130.25
2023-05-05T14:46:07.599Z,160142.25
2023-05-05T14:48:35.278Z,160158.34
2023-05-05T14:51:03.400Z,160191.72
2023-05-05T14:53:30.801Z,160173.03
2023-05-05T14:56:01.169Z,160143.63
2023-05-05T14:58:28.489Z,160119.53
2023-05-05T15:00:56.357Z,160079.44
2023-05-05T15:03:23.628Z,160025.88
2023-05-05T15:05:51.562Z,160024.56
2023-05-05T15:08:21.460Z,160063.38
2023-05-05T15:10:49.084Z,160134.22
2023-05-05T15:13:17.351Z,160099.47
2023-05-05T15:15:45.432Z,160126.22
2023-05-05T15:18:12.740Z,160110.19
2023-05-05T15:20:40.612Z,160116.88
2023-05-05T15:23:08.069Z,160092.78
2023-05-05T15:25:36.758Z,160140.91
2023-05-05T15:28:04.307Z,160140.91
2023-05-05T15:30:32.243Z,160158.34
2023-05-05T15:32:59.699Z,160100.84
2023-05-05T15:35:27.391Z,160088.78
2023-05-05T15:37:54.976Z,160049.94
2023-05-05T15:40:22.785Z,160058.06
2023-05-05T15:42:50.028Z,160041.91
2023-05-05T15:45:17.782Z,159997.81
2023-05-05T15:47:46.193Z,159968.41
2023-05-05T15:50:14.428Z,160017.88
2023-05-05T15:52:41.959Z,159999.16
2023-05-05T15:55:10.510Z,160028.53
2023-05-05T15:57:39.999Z,160032.59
2023-05-05T16:00:08.921Z,159967.09
2023-05-05T16:02:37.635Z,159965.72
2023-05-05T16:05:05.715Z,159975.09
2023-05-05T16:07:33.039Z,159996.50
2023-05-05T16:10:00.945Z,159980.47
2023-05-05T16:12:28.313Z,160001.84
2023-05-05T16:14:56.012Z,159952.38
2023-05-05T16:17:23.399Z,159892.22
2023-05-05T16:19:51.278Z,159848.13
2023-05-05T16:22:18.628Z,159849.47
2023-05-05T16:24:47.269Z,159829.41
2023-05-05T16:27:15.306Z,159813.38
2023-05-05T16:29:43.023Z,159812.06
2023-05-05T16:32:10.288Z,159777.31
2023-05-05T16:34:38.089Z,159762.63
2023-05-05T16:37:06.045Z,159770.63
2023-05-05T16:39:35.548Z,159761.25
2023-05-05T16:42:03.789Z,159777.31
2023-05-05T16:44:31.509Z,159754.59
2023-05-05T16:46:58.854Z,159733.19
2023-05-05T16:49:26.630Z,159715.84
2023-05-05T16:51:54.016Z,159742.56
2023-05-05T16:54:21.605Z,159737.22
2023-05-05T16:56:48.931Z,159719.88
2023-05-05T16:59:18.462Z,159687.78
2023-05-05T17:01:45.930Z,159669.03
2023-05-05T17:04:13.790Z,159659.69
2023-05-05T17:06:41.143Z,159632.97
2023-05-05T17:09:08.846Z,159626.28
2023-05-05T17:11:36.243Z,159614.28
2023-05-05T17:14:03.818Z,159596.91
2023-05-05T17:16:31.408Z,159594.25
2023-05-05T17:18:59.033Z,159526.13
2023-05-05T17:21:27.077Z,159515.47
2023-05-05T17:23:54.780Z,159502.13
2023-05-05T17:26:23.186Z,159484.75
2023-05-05T17:28:50.943Z,159454.06
2023-05-05T17:31:18.184Z,159423.38
2023-05-05T17:33:45.970Z,159422.00
2023-05-05T17:36:13.330Z,159405.97
2023-05-05T17:38:41.080Z,159371.28
2023-05-05T17:41:08.478Z,159368.63
2023-05-05T17:43:36.122Z,159363.28
2023-05-05T17:46:03.488Z,159335.25
2023-05-05T17:48:31.437Z,159340.59
2023-05-05T17:50:58.707Z,159328.56
2023-05-05T17:53:26.653Z,159316.56
2023-05-05T17:55:54.753Z,159284.56
2023-05-05T17:58:22.443Z,159272.53
2023-05-05T18:00:49.678Z,159240.47
2023-05-05T18:03:17.637Z,159215.09
2023-05-05T18:05:44.935Z,159207.09
2023-05-05T18:08:12.862Z,159175.06
2023-05-05T18:10:40.199Z,159144.41
2023-05-05T18:13:08.085Z,159124.38
2023-05-05T18:15:35.706Z,159097.69
2023-05-05T18:18:03.471Z,159080.38
2023-05-05T18:20:31.219Z,159065.72
2023-05-05T18:22:59.637Z,159060.38
2023-05-05T18:25:29.246Z,159021.69
2023-05-05T18:27:58.147Z,159003.03
2023-05-05T18:30:26.450Z,159019.03
2023-05-05T18:32:56.845Z,158973.72
2023-05-05T18:35:25.502Z,158968.38
2023-05-05T18:37:55.718Z,158956.34
2023-05-05T18:40:25.739Z,158931.06
2023-05-05T18:42:56.486Z,158909.72
2023-05-05T18:45:27.204Z,158891.06
2023-05-05T18:47:56.679Z,158848.41
2023-05-05T18:50:26.950Z,158841.72
2023-05-05T18:52:56.420Z,158829.72
2023-05-05T18:55:26.424Z,158795.06
2023-05-05T18:57:58.138Z,158793.75
2023-05-05T19:00:27.274Z,158785.75
2023-05-05T19:02:55.379Z,158769.72
2023-05-05T19:05:22.795Z,158780.41
2023-05-05T19:07:51.140Z,158773.69
2023-05-05T19:10:18.948Z,158748.41
2023-05-05T19:12:46.945Z,158715.09
2023-05-05T19:15:15.160Z,158715.09
2023-05-05T19:17:43.493Z,158708.41
2023-05-05T19:20:12.323Z,158700.44
2023-05-05T19:22:41.198Z,158687.09
2023-05-05T19:25:10.066Z,158673.78
2023-05-05T19:27:38.801Z,158680.44
2023-05-05T19:30:07.583Z,158675.09
2023-05-05T19:32:36.496Z,158668.44
2023-05-05T19:35:04.342Z,158640.47
2023-05-05T19:37:34.606Z,158621.84
2023-05-05T19:40:02.933Z,158613.84
2023-05-05T19:42:31.168Z,158627.13
2023-05-05T19:44:59.222Z,158593.88
2023-05-05T19:47:27.977Z,158584.50
2023-05-05T19:49:55.836Z,158573.88
2023-05-05T19:52:24.277Z,158565.91
2023-05-05T19:54:52.102Z,158564.59
2023-05-05T19:57:20.786Z,158563.22
2023-05-05T19:59:50.598Z,158573.88
2023-05-05T20:02:20.871Z,158583.19
2023-05-05T20:04:49.808Z,158587.22
2023-05-05T20:07:19.285Z,158581.88
2023-05-05T20:09:46.992Z,158583.19
2023-05-05T20:12:17.781Z,158607.19
2023-05-05T20:14:46.128Z,158597.84
2023-05-05T20:17:16.283Z,158609.84
2023-05-05T20:20:01.976Z,158607.19
2023-05-05T20:22:31.387Z,158600.53
2023-05-05T20:24:59.367Z,158623.16
2023-05-05T20:27:28.812Z,158608.53
2023-05-05T20:29:56.870Z,158592.50
2023-05-05T20:32:25.420Z,158593.88
2023-05-05T20:34:54.606Z,158616.50
2023-05-05T20:37:27.366Z,158640.47
2023-05-05T20:39:55.088Z,158641.84
2023-05-05T20:42:23.945Z,158644.47
2023-05-05T20:44:54.353Z,158683.09
2023-05-05T20:47:23.386Z,158708.41
2023-05-05T20:49:52.774Z,158720.44
2023-05-05T20:52:21.418Z,158720.44
2023-05-05T20:54:49.387Z,158743.06
2023-05-05T20:57:17.808Z,158715.09
2023-05-05T20:59:58.854Z,158708.41
2023-05-05T21:02:27.246Z,158699.13
2023-05-05T21:04:55.502Z,158699.13
2023-05-05T21:07:23.933Z,158680.44
2023-05-05T21:09:52.076Z,158673.78
2023-05-05T21:12:20.036Z,158672.47
2023-05-05T21:14:48.211Z,158647.13
2023-05-05T21:17:17.289Z,158651.16
2023-05-05T21:19:47.706Z,158629.84
2023-05-05T21:22:16.259Z,158605.81
2023-05-05T21:24:44.630Z,158597.84
2023-05-05T21:27:13.727Z,158595.19
2023-05-05T21:29:42.009Z,158572.56
2023-05-05T21:32:11.648Z,158560.56
2023-05-05T21:34:39.916Z,158545.91
2023-05-05T21:37:08.594Z,158531.28
2023-05-05T21:39:36.378Z,158528.56
2023-05-05T21:42:04.989Z,158525.94
2023-05-05T21:44:33.012Z,158503.31
2023-05-05T21:47:01.426Z,158496.66
2023-05-05T21:49:30.099Z,158491.31
2023-05-05T21:51:58.502Z,158507.28
2023-05-05T21:54:26.562Z,158491.31
2023-05-05T21:56:54.987Z,158488.66
2023-05-05T21:59:22.756Z,158479.31
2023-05-05T22:01:51.482Z,158460.69
2023-05-05T22:04:19.825Z,158476.66
2023-05-05T22:06:48.114Z,158466.00
2023-05-05T22:09:15.989Z,158439.41
2023-05-05T22:11:44.176Z,158448.72
2023-05-05T22:14:11.987Z,158444.69
2023-05-05T22:16:40.328Z,158467.38
2023-05-05T22:19:08.589Z,158462.03
2023-05-05T22:21:37.118Z,158458.00
2023-05-05T22:24:05.516Z,158443.38
2023-05-05T22:26:33.489Z,158463.34
2023-05-05T22:29:01.353Z,158451.34
2023-05-05T22:31:30.956Z,158456.69
2023-05-05T22:33:59.468Z,158458.00
2023-05-05T22:36:28.532Z,158460.69
2023-05-05T22:38:56.384Z,158456.69
2023-05-05T22:41:25.557Z,158447.38
2023-05-05T22:43:53.355Z,158462.03
2023-05-05T22:46:21.929Z,158444.69
2023-05-05T22:48:49.861Z,158471.31
2023-05-05T22:51:20.104Z,158458.00
2023-05-05T22:53:49.839Z,158438.06
2023-05-05T22:56:17.874Z,158446.06
2023-05-05T22:58:47.368Z,158432.75
2023-05-05T23:01:16.146Z,158430.03
2023-05-05T23:03:44.076Z,158438.06
2023-05-05T23:06:12.632Z,158388.81
2023-05-05T23:08:42.221Z,158403.47
2023-05-05T23:11:10.995Z,158411.44
2023-05-05T23:13:39.975Z,158387.44
2023-05-05T23:16:09.634Z,158384.81
2023-05-05T23:18:39.100Z,158395.44
2023-05-05T23:21:07.693Z,158398.13
2023-05-05T23:23:35.565Z,158368.84
2023-05-05T23:26:03.714Z,158346.19
2023-05-05T23:28:31.390Z,158335.56
2023-05-05T23:30:59.871Z,158342.22
2023-05-05T23:33:32.073Z,158336.88
2023-05-05T23:36:03.095Z,158344.84
2023-05-05T23:38:31.026Z,158351.50
2023-05-05T23:40:59.435Z,158348.88
2023-05-05T23:43:27.196Z,158344.84
2023-05-05T23:45:55.643Z,158319.59
2023-05-05T23:48:24.277Z,158298.31
2023-05-05T23:50:53.066Z,158306.28
2023-05-05T23:53:20.894Z,158285.00
2023-05-05T23:55:49.423Z,158283.69
2023-05-05T23:58:17.313Z,158249.06
